createdAt,value
2017-01-07T00:00:06.887Z,1036.64
2017-01-07T00:00:32.535Z,1036.57
2017-01-07T00:00:58.166Z,1036.59
2017-01-07T00:01:23.881Z,1036.58
2017-01-07T00:01:49.454Z,1036.62
2017-01-07T00:02:15.282Z,1036.6
2017-01-07T00:02:40.877Z,1036.58
2017-01-07T00:03:06.713Z,1036.56
2017-01-07T00:03:32.277Z,1036.56
2017-01-07T00:03:58.069Z,1036.59
2017-01-07T00:04:23.821Z,1036.54
2017-01-07T00:04:49.637Z,1036.52
2017-01-07T00:05:53.505Z,1036.52
2017-01-07T00:06:19.343Z,1036.45
2017-01-07T00:06:45.106Z,1036.46
2017-01-07T00:07:10.848Z,1036.41
2017-01-07T00:07:36.462Z,1036.42
2017-01-07T00:08:02.098Z,1036.38
2017-01-07T00:08:27.700Z,1036.34
2017-01-07T00:08:53.399Z,1036.32
2017-01-07T00:09:19.250Z,1036.29
2017-01-07T00:09:45.087Z,1036.31
2017-01-07T00:10:10.817Z,1036.31
2017-01-07T00:10:36.457Z,1036.27
2017-01-07T00:11:02.165Z,1036.24
2017-01-07T00:11:27.746Z,1036.25
2017-01-07T00:11:53.392Z,1036.16
2017-01-07T00:12:19.022Z,1036.24
2017-01-07T00:12:44.719Z,1036.17
2017-01-07T00:13:10.355Z,1036.2
2017-01-07T00:13:36.029Z,1036.23
2017-01-07T00:14:01.614Z,1036.24
2017-01-07T00:14:27.390Z,1036.22
2017-01-07T00:14:53.021Z,1036.26
2017-01-07T00:15:18.569Z,1036.28
2017-01-07T00:15:44.182Z,1036.25
2017-01-07T00:16:09.734Z,1036.27
2017-01-07T00:16:35.340Z,1036.27
2017-01-07T00:17:00.960Z,1036.24
2017-01-07T00:17:26.788Z,1036.23
2017-01-07T00:17:52.385Z,1036.21
2017-01-07T00:18:18.024Z,1036.21
2017-01-07T00:18:43.611Z,1036.23
2017-01-07T00:19:09.173Z,1036.21
2017-01-07T00:19:34.763Z,1036.21
2017-01-07T00:20:00.348Z,1036.18
2017-01-07T00:20:25.992Z,1036.18
2017-01-07T00:20:51.548Z,1036.18
2017-01-07T00:21:17.117Z,1036.16
2017-01-07T00:21:42.688Z,1036.13
2017-01-07T00:22:08.406Z,1036.16
2017-01-07T00:22:33.950Z,1036.13
2017-01-07T00:22:59.541Z,1036.16
2017-01-07T00:23:25.127Z,1036.11
2017-01-07T00:23:50.687Z,1036.14
2017-01-07T00:24:16.269Z,1036.14
2017-01-07T00:24:41.905Z,1036.07
2017-01-07T00:25:07.498Z,1036.11
2017-01-07T00:25:33.070Z,1036.13
2017-01-07T00:25:58.611Z,1036.13
2017-01-07T00:26:24.168Z,1036.08
2017-01-07T00:26:49.798Z,1036.14
2017-01-07T00:27:15.402Z,1036.11
2017-01-07T00:27:40.982Z,1036.09
2017-01-07T00:28:06.538Z,1036.1
2017-01-07T00:28:32.135Z,1036.13
2017-01-07T00:28:57.707Z,1036.11
2017-01-07T00:30:06.503Z,1036.1
2017-01-07T00:30:32.078Z,1036.14
2017-01-07T00:30:57.642Z,1036.15
2017-01-07T00:31:23.212Z,1036.14
2017-01-07T00:31:48.794Z,1036.12
2017-01-07T00:32:14.377Z,1036.11
2017-01-07T00:32:39.982Z,1036.08
2017-01-07T00:33:05.542Z,1036.12
2017-01-07T00:33:31.097Z,1036.1
2017-01-07T00:33:56.688Z,1036.13
2017-01-07T00:34:22.235Z,1036.14
2017-01-07T00:34:47.839Z,1036.12
2017-01-07T00:35:13.415Z,1036.15
2017-01-07T00:35:39.030Z,1036.12
2017-01-07T00:36:04.600Z,1036.1
2017-01-07T00:36:30.164Z,1036.12
2017-01-07T00:36:55.729Z,1036.16
2017-01-07T00:37:21.287Z,1036.1
2017-01-07T00:37:46.856Z,1036.08
2017-01-07T00:38:12.417Z,1036.08
2017-01-07T00:38:37.987Z,1036.1
2017-01-07T00:39:03.626Z,1036.05
2017-01-07T00:39:29.231Z,1036.08
2017-01-07T00:39:54.769Z,1036.07
2017-01-07T00:40:20.339Z,1036.08
2017-01-07T00:40:45.892Z,1036.06
2017-01-07T00:41:11.478Z,1036.03
2017-01-07T00:41:37.065Z,1036.05
2017-01-07T00:42:02.620Z,1036.07
2017-01-07T00:42:28.164Z,1036.04
2017-01-07T00:42:53.712Z,1036.07
2017-01-07T00:43:19.316Z,1036.03
2017-01-07T00:43:44.870Z,1036
2017-01-07T00:44:10.463Z,1036.02
2017-01-07T00:44:36.016Z,1035.96
2017-01-07T00:45:01.586Z,1036.02
2017-01-07T00:45:27.252Z,1036.05
2017-01-07T00:45:52.792Z,1036.01
2017-01-07T00:46:18.386Z,1036.08
2017-01-07T00:46:43.969Z,1036.04
2017-01-07T00:47:09.535Z,1036.05
2017-01-07T00:47:35.087Z,1036.04
2017-01-07T00:48:00.639Z,1036.03
2017-01-07T00:48:26.205Z,1036.05
2017-01-07T00:48:51.800Z,1036.02
2017-01-07T00:49:17.363Z,1036.03
2017-01-07T00:49:42.919Z,1036.03
2017-01-07T00:50:08.481Z,1036.05
2017-01-07T00:50:34.053Z,1036.07
2017-01-07T00:50:59.694Z,1036.07
2017-01-07T00:51:25.305Z,1036.12
2017-01-07T00:51:50.913Z,1036.09
2017-01-07T00:52:16.537Z,1036.08
2017-01-07T00:52:42.130Z,1036.07
2017-01-07T00:53:07.700Z,1036.09
2017-01-07T00:53:33.269Z,1036.05
2017-01-07T00:53:58.826Z,1036.06
2017-01-07T00:54:24.407Z,1036.05
2017-01-07T00:54:49.959Z,1036.06
2017-01-07T00:55:15.536Z,1036.06
2017-01-07T00:55:41.187Z,1036.06
2017-01-07T00:56:06.759Z,1035.99
2017-01-07T00:56:32.320Z,1035.97
2017-01-07T00:56:58.015Z,1036.01
2017-01-07T00:57:23.578Z,1036
2017-01-07T00:57:49.147Z,1035.94
2017-01-07T00:58:14.706Z,1035.94
2017-01-07T00:58:40.323Z,1035.94
2017-01-07T00:59:05.903Z,1035.94
2017-01-07T00:59:31.459Z,1035.9
2017-01-07T00:59:57.004Z,1035.88
2017-01-07T01:00:22.566Z,1035.89
2017-01-07T01:00:48.174Z,1035.88
2017-01-07T01:01:13.742Z,1035.85
2017-01-07T01:01:39.307Z,1035.88
2017-01-07T01:02:04.876Z,1035.82
2017-01-07T01:02:30.465Z,1035.81
2017-01-07T01:02:56.045Z,1035.78
2017-01-07T01:03:21.613Z,1035.78
2017-01-07T01:03:47.184Z,1035.77
2017-01-07T01:04:12.761Z,1035.75
2017-01-07T01:04:38.334Z,1035.78
2017-01-07T01:05:03.902Z,1035.75
2017-01-07T01:05:29.483Z,1035.78
2017-01-07T01:05:55.148Z,1035.7
2017-01-07T01:06:20.716Z,1035.76
2017-01-07T01:06:46.287Z,1035.73
2017-01-07T01:07:11.854Z,1035.76
2017-01-07T01:07:37.515Z,1035.72
2017-01-07T01:08:03.059Z,1035.75
2017-01-07T01:08:28.693Z,1035.71
2017-01-07T01:08:54.259Z,1035.76
2017-01-07T01:09:19.813Z,1035.7
2017-01-07T01:09:45.399Z,1035.66
2017-01-07T01:10:10.943Z,1035.72
2017-01-07T01:10:36.529Z,1035.71
2017-01-07T01:11:02.152Z,1035.7
2017-01-07T01:12:21.465Z,1035.68
2017-01-07T01:12:47.175Z,1035.68
2017-01-07T01:13:12.772Z,1035.72
2017-01-07T01:13:38.334Z,1035.7
2017-01-07T01:14:03.898Z,1035.67
2017-01-07T01:14:29.472Z,1035.7
2017-01-07T01:14:55.047Z,1035.74
2017-01-07T01:15:20.716Z,1035.66
2017-01-07T01:15:46.394Z,1035.68
2017-01-07T01:16:11.972Z,1035.65
2017-01-07T01:16:37.547Z,1035.71
2017-01-07T01:17:03.232Z,1035.7
2017-01-07T01:17:28.821Z,1035.72
2017-01-07T01:17:54.376Z,1035.72
2017-01-07T01:18:20.035Z,1035.71
2017-01-07T01:18:45.634Z,1035.75
2017-01-07T01:19:11.218Z,1035.72
2017-01-07T01:19:36.905Z,1035.74
2017-01-07T01:20:02.469Z,1035.74
2017-01-07T01:20:28.060Z,1035.74
2017-01-07T01:20:53.663Z,1035.74
2017-01-07T01:21:19.231Z,1035.75
2017-01-07T01:21:44.794Z,1035.75
2017-01-07T01:22:10.369Z,1035.78
2017-01-07T01:22:36.009Z,1035.77
2017-01-07T01:23:01.587Z,1035.77
2017-01-07T01:23:27.133Z,1035.75
2017-01-07T01:23:52.843Z,1035.72
2017-01-07T01:24:18.459Z,1035.7
2017-01-07T01:24:44.046Z,1035.73
2017-01-07T01:25:09.611Z,1035.71
2017-01-07T01:25:35.246Z,1035.69
2017-01-07T01:26:00.814Z,1035.7
2017-01-07T01:26:26.405Z,1035.64
2017-01-07T01:26:52.041Z,1035.66
2017-01-07T01:27:17.637Z,1035.67
2017-01-07T01:27:43.199Z,1035.65
2017-01-07T01:28:08.758Z,1035.64
2017-01-07T01:28:34.328Z,1035.61
2017-01-07T01:28:59.891Z,1035.63
2017-01-07T01:29:25.455Z,1035.65
2017-01-07T01:29:51.015Z,1035.62
2017-01-07T01:30:16.564Z,1035.56
2017-01-07T01:30:42.203Z,1035.62
2017-01-07T01:31:07.766Z,1035.56
2017-01-07T01:31:33.328Z,1035.49
2017-01-07T01:31:59.020Z,1035.45
2017-01-07T01:32:24.599Z,1035.44
2017-01-07T01:32:50.158Z,1035.45
2017-01-07T01:33:15.716Z,1035.45
2017-01-07T01:33:41.284Z,1035.42
2017-01-07T01:34:06.889Z,1035.43
2017-01-07T01:34:32.435Z,1035.4
2017-01-07T01:34:58.006Z,1035.42
2017-01-07T01:35:23.575Z,1035.39
2017-01-07T01:35:49.113Z,1035.39
2017-01-07T01:36:14.701Z,1035.37
2017-01-07T01:36:40.286Z,1035.35
2017-01-07T01:37:05.999Z,1035.35
2017-01-07T01:37:31.561Z,1035.34
2017-01-07T01:37:57.127Z,1035.35
2017-01-07T01:38:22.782Z,1035.36
2017-01-07T01:38:48.448Z,1035.32
2017-01-07T01:39:14.016Z,1035.36
2017-01-07T01:39:39.592Z,1035.35
2017-01-07T01:40:05.181Z,1035.35
2017-01-07T01:40:30.749Z,1035.32
2017-01-07T01:40:56.306Z,1035.32
2017-01-07T01:41:21.877Z,1035.33
2017-01-07T01:41:47.432Z,1035.31
2017-01-07T01:42:13.015Z,1035.3
2017-01-07T01:42:38.552Z,1035.31
2017-01-07T01:43:04.126Z,1035.36
2017-01-07T01:43:29.717Z,1035.3
2017-01-07T01:43:55.290Z,1035.28
2017-01-07T01:44:20.856Z,1035.28
2017-01-07T01:44:46.402Z,1035.23
2017-01-07T01:45:11.991Z,1035.28
2017-01-07T01:45:37.532Z,1035.27
2017-01-07T01:46:03.079Z,1035.27
2017-01-07T01:46:28.654Z,1035.31
2017-01-07T01:46:54.245Z,1035.32
2017-01-07T01:47:19.814Z,1035.32
2017-01-07T01:47:45.368Z,1035.33
2017-01-07T01:48:10.950Z,1035.35
2017-01-07T01:48:36.503Z,1035.3
2017-01-07T01:49:02.073Z,1035.32
2017-01-07T01:49:27.641Z,1035.36
2017-01-07T01:49:53.298Z,1035.3
2017-01-07T01:50:18.873Z,1035.26
2017-01-07T01:50:44.425Z,1035.29
2017-01-07T01:51:10.084Z,1035.28
2017-01-07T01:51:35.673Z,1035.3
2017-01-07T01:52:01.232Z,1035.26
2017-01-07T01:52:26.962Z,1035.26
2017-01-07T01:52:52.515Z,1035.23
2017-01-07T01:53:18.074Z,1035.22
2017-01-07T01:53:43.620Z,1035.24
2017-01-07T01:54:09.197Z,1035.22
2017-01-07T01:54:34.797Z,1035.23
2017-01-07T01:55:00.415Z,1035.2
2017-01-07T01:55:26.132Z,1035.26
2017-01-07T01:55:51.700Z,1035.26
2017-01-07T01:56:17.288Z,1035.24
2017-01-07T01:56:42.894Z,1035.28
2017-01-07T01:57:08.450Z,1035.25
2017-01-07T01:57:34.016Z,1035.22
2017-01-07T01:57:59.652Z,1035.21
2017-01-07T01:58:25.319Z,1035.26
2017-01-07T01:58:50.873Z,1035.19
2017-01-07T01:59:16.429Z,1035.25
2017-01-07T01:59:41.994Z,1035.21
2017-01-07T02:00:07.587Z,1035.27
2017-01-07T02:00:33.151Z,1035.29
2017-01-07T02:00:58.746Z,1035.25
2017-01-07T02:01:24.312Z,1035.28
2017-01-07T02:01:49.858Z,1035.29
2017-01-07T02:02:15.428Z,1035.32
2017-01-07T02:02:40.985Z,1035.29
2017-01-07T02:03:06.602Z,1035.27
2017-01-07T02:03:32.165Z,1035.27
2017-01-07T02:03:57.724Z,1035.24
2017-01-07T02:04:23.305Z,1035.24
2017-01-07T02:04:48.866Z,1035.22
2017-01-07T02:05:14.445Z,1035.2
2017-01-07T02:05:39.999Z,1035.23
2017-01-07T02:06:05.674Z,1035.19
2017-01-07T02:06:31.242Z,1035.16
2017-01-07T02:06:56.806Z,1035.15
2017-01-07T02:07:22.384Z,1035.16
2017-01-07T02:07:47.944Z,1035.15
2017-01-07T02:08:13.492Z,1035.16
2017-01-07T02:08:39.055Z,1035.11
2017-01-07T02:09:04.614Z,1035.15
2017-01-07T02:09:30.240Z,1035.15
2017-01-07T02:09:55.797Z,1035.13
2017-01-07T02:10:21.383Z,1035.12
2017-01-07T02:10:46.938Z,1035.1
2017-01-07T02:11:12.512Z,1035.11
2017-01-07T02:11:38.079Z,1035.1
2017-01-07T02:12:03.651Z,1035.1
2017-01-07T02:12:29.221Z,1035.11
2017-01-07T02:12:54.842Z,1035.07
2017-01-07T02:13:53.445Z,1035.08
2017-01-07T02:14:19.200Z,1035.12
2017-01-07T02:14:44.762Z,1035.06
2017-01-07T02:15:10.322Z,1035.07
2017-01-07T02:15:35.872Z,1035.05
2017-01-07T02:16:01.554Z,1035
2017-01-07T02:16:27.115Z,1035.03
2017-01-07T02:16:52.784Z,1035.02
2017-01-07T02:17:18.379Z,1035
2017-01-07T02:17:43.943Z,1035.01
2017-01-07T02:18:09.647Z,1035
2017-01-07T02:18:35.231Z,1035.01
2017-01-07T02:19:00.773Z,1035
2017-01-07T02:19:26.327Z,1035
2017-01-07T02:19:51.873Z,1035.05
2017-01-07T02:20:17.469Z,1035.02
2017-01-07T02:20:43.044Z,1035.01
2017-01-07T02:21:08.596Z,1035.05
2017-01-07T02:21:34.151Z,1035
2017-01-07T02:21:59.784Z,1035.01
2017-01-07T02:22:25.389Z,1035.02
2017-01-07T02:22:50.963Z,1035.03
2017-01-07T02:23:16.550Z,1035
2017-01-07T02:23:42.222Z,1035
2017-01-07T02:24:07.796Z,1035
2017-01-07T02:24:33.348Z,1034.97
2017-01-07T02:24:58.991Z,1034.92
2017-01-07T02:25:24.551Z,1034.92
2017-01-07T02:25:50.109Z,1034.91
2017-01-07T02:26:15.674Z,1034.89
2017-01-07T02:26:41.351Z,1034.89
2017-01-07T02:27:06.911Z,1034.87
2017-01-07T02:27:32.468Z,1034.91
2017-01-07T02:27:58.159Z,1034.85
2017-01-07T02:28:23.698Z,1034.87
2017-01-07T02:28:49.272Z,1034.85
2017-01-07T02:29:14.893Z,1034.82
2017-01-07T02:29:40.470Z,1034.85
2017-01-07T02:30:06.041Z,1034.84
2017-01-07T02:30:31.651Z,1034.81
2017-01-07T02:30:57.310Z,1034.82
2017-01-07T02:31:22.872Z,1034.87
2017-01-07T02:31:48.456Z,1034.84
2017-01-07T02:32:14.023Z,1034.85
2017-01-07T02:32:39.589Z,1034.82
2017-01-07T02:33:05.165Z,1034.83
2017-01-07T02:33:30.737Z,1034.79
2017-01-07T02:33:56.293Z,1034.81
2017-01-07T02:34:21.858Z,1034.77
2017-01-07T02:34:47.424Z,1034.74
2017-01-07T02:35:12.995Z,1034.74
2017-01-07T02:35:38.563Z,1034.7
2017-01-07T02:36:04.134Z,1034.73
2017-01-07T02:36:29.784Z,1034.75
2017-01-07T02:36:55.392Z,1034.67
2017-01-07T02:37:20.963Z,1034.7
2017-01-07T02:37:46.523Z,1034.69
2017-01-07T02:38:12.095Z,1034.73
2017-01-07T02:38:37.645Z,1034.66
2017-01-07T02:39:03.213Z,1034.64
2017-01-07T02:39:28.781Z,1034.66
2017-01-07T02:39:54.339Z,1034.64
2017-01-07T02:40:19.907Z,1034.65
2017-01-07T02:40:45.507Z,1034.67
2017-01-07T02:41:11.096Z,1034.64
2017-01-07T02:41:36.656Z,1034.65
2017-01-07T02:42:02.224Z,1034.66
2017-01-07T02:42:27.792Z,1034.63
2017-01-07T02:42:53.342Z,1034.62
2017-01-07T02:43:18.884Z,1034.61
2017-01-07T02:43:44.432Z,1034.63
2017-01-07T02:44:10.029Z,1034.57
2017-01-07T02:44:35.592Z,1034.62
2017-01-07T02:45:01.132Z,1034.58
2017-01-07T02:45:26.725Z,1034.57
2017-01-07T02:45:52.402Z,1034.55
2017-01-07T02:46:17.953Z,1034.53
2017-01-07T02:46:43.499Z,1034.53
2017-01-07T02:47:09.070Z,1034.52
2017-01-07T02:47:34.638Z,1034.47
2017-01-07T02:48:00.262Z,1034.46
2017-01-07T02:48:25.814Z,1034.45
2017-01-07T02:48:51.369Z,1034.48
2017-01-07T02:49:16.940Z,1034.47
2017-01-07T02:49:42.505Z,1034.43
2017-01-07T02:50:08.062Z,1034.46
2017-01-07T02:50:33.624Z,1034.45
2017-01-07T02:50:59.191Z,1034.46
2017-01-07T02:51:24.746Z,1034.43
2017-01-07T02:51:50.400Z,1034.43
2017-01-07T02:52:15.966Z,1034.43
2017-01-07T02:52:41.539Z,1034.47
2017-01-07T02:53:07.225Z,1034.43
2017-01-07T02:53:32.808Z,1034.41
2017-01-07T02:53:58.376Z,1034.38
2017-01-07T02:54:23.937Z,1034.36
2017-01-07T02:54:49.608Z,1034.36
2017-01-07T02:55:15.201Z,1034.36
2017-01-07T02:55:40.891Z,1034.36
2017-01-07T02:56:06.426Z,1034.37
2017-01-07T02:56:32.000Z,1034.33
2017-01-07T02:56:57.546Z,1034.32
2017-01-07T02:57:23.109Z,1034.34
2017-01-07T02:57:48.667Z,1034.33
2017-01-07T02:58:14.238Z,1034.28
2017-01-07T02:58:39.810Z,1034.29
2017-01-07T02:59:05.362Z,1034.29
2017-01-07T02:59:31.004Z,1034.33
2017-01-07T02:59:56.560Z,1034.29
2017-01-07T03:00:22.115Z,1034.31
2017-01-07T03:00:47.674Z,1034.31
2017-01-07T03:01:13.223Z,1034.32
2017-01-07T03:01:38.792Z,1034.32
2017-01-07T03:02:04.351Z,1034.29
2017-01-07T03:02:29.922Z,1034.29
2017-01-07T03:02:55.480Z,1034.32
2017-01-07T03:03:21.029Z,1034.32
2017-01-07T03:03:46.568Z,1034.34
2017-01-07T03:04:12.124Z,1034.36
2017-01-07T03:04:37.692Z,1034.36
2017-01-07T03:05:03.250Z,1034.36
2017-01-07T03:05:28.808Z,1034.37
2017-01-07T03:05:54.366Z,1034.39
2017-01-07T03:06:19.916Z,1034.36
2017-01-07T03:06:45.471Z,1034.33
2017-01-07T03:07:11.047Z,1034.35
2017-01-07T03:07:36.626Z,1034.32
2017-01-07T03:08:02.239Z,1034.32
2017-01-07T03:08:27.812Z,1034.31
2017-01-07T03:08:53.365Z,1034.3
2017-01-07T03:09:18.921Z,1034.25
2017-01-07T03:09:44.503Z,1034.27
2017-01-07T03:10:10.087Z,1034.21
2017-01-07T03:10:35.684Z,1034.22
2017-01-07T03:11:01.234Z,1034.18
2017-01-07T03:11:26.865Z,1034.19
2017-01-07T03:11:52.476Z,1034.15
2017-01-07T03:12:18.029Z,1034.11
2017-01-07T03:12:43.626Z,1034.11
2017-01-07T03:13:09.180Z,1034.15
2017-01-07T03:13:34.753Z,1034.18
2017-01-07T03:14:00.302Z,1034.2
2017-01-07T03:14:25.860Z,1034.22
2017-01-07T03:14:51.401Z,1034.18
2017-01-07T03:15:17.067Z,1034.18
2017-01-07T03:15:42.671Z,1034.14
2017-01-07T03:16:08.274Z,1034.16
2017-01-07T03:16:33.911Z,1034.13
2017-01-07T03:16:59.490Z,1034.22
2017-01-07T03:17:25.040Z,1034.18
2017-01-07T03:17:50.612Z,1034.15
2017-01-07T03:18:16.182Z,1034.13
2017-01-07T03:18:41.763Z,1034.11
2017-01-07T03:19:07.338Z,1034.12
2017-01-07T03:19:32.938Z,1034.14
2017-01-07T03:19:58.503Z,1034.1
2017-01-07T03:20:24.075Z,1034.1
2017-01-07T03:20:49.655Z,1034.11
2017-01-07T03:21:15.227Z,1034.11
2017-01-07T03:21:40.816Z,1034.16
2017-01-07T03:22:06.481Z,1034.19
2017-01-07T03:22:32.041Z,1034.14
2017-01-07T03:22:57.623Z,1034.17
2017-01-07T03:23:23.201Z,1034.14
2017-01-07T03:23:48.763Z,1034.15
2017-01-07T03:24:14.321Z,1034.13
2017-01-07T03:24:39.886Z,1034.1
2017-01-07T03:25:05.593Z,1034.08
2017-01-07T03:25:31.163Z,1034.06
2017-01-07T03:25:56.745Z,1034.02
2017-01-07T03:26:22.331Z,1034.03
2017-01-07T03:26:47.891Z,1034.02
2017-01-07T03:27:13.438Z,1034.01
2017-01-07T03:27:38.990Z,1033.98
2017-01-07T03:28:04.553Z,1033.98
2017-01-07T03:28:30.171Z,1034
2017-01-07T03:28:55.772Z,1033.95
2017-01-07T03:29:21.331Z,1033.95
2017-01-07T03:29:46.905Z,1034
2017-01-07T03:30:12.473Z,1033.95
2017-01-07T03:30:38.038Z,1033.98
2017-01-07T03:31:03.588Z,1033.95
2017-01-07T03:31:29.162Z,1033.92
2017-01-07T03:31:54.774Z,1033.94
2017-01-07T03:32:20.315Z,1033.9
2017-01-07T03:32:45.867Z,1033.93
2017-01-07T03:33:11.535Z,1033.96
2017-01-07T03:33:37.092Z,1033.96
2017-01-07T03:34:02.646Z,1033.93
2017-01-07T03:34:28.206Z,1033.92
2017-01-07T03:34:53.794Z,1033.92
2017-01-07T03:35:19.349Z,1033.86
2017-01-07T03:35:44.933Z,1033.91
2017-01-07T03:36:10.558Z,1033.88
2017-01-07T03:36:36.131Z,1033.84
2017-01-07T03:37:01.785Z,1033.84
2017-01-07T03:37:27.352Z,1033.83
2017-01-07T03:37:52.926Z,1033.85
2017-01-07T03:38:18.498Z,1033.82
2017-01-07T03:38:44.152Z,1033.8
2017-01-07T03:39:09.720Z,1033.82
2017-01-07T03:39:35.292Z,1033.82
2017-01-07T03:40:00.958Z,1033.77
2017-01-07T03:40:26.536Z,1033.82
2017-01-07T03:40:52.098Z,1033.79
2017-01-07T03:41:17.682Z,1033.8
2017-01-07T03:41:43.350Z,1033.74
2017-01-07T03:42:08.910Z,1033.74
2017-01-07T03:42:34.473Z,1033.73
2017-01-07T03:43:00.063Z,1033.74
2017-01-07T03:43:25.737Z,1033.72
2017-01-07T03:43:51.293Z,1033.74
2017-01-07T03:44:16.863Z,1033.73
2017-01-07T03:44:42.424Z,1033.71
2017-01-07T03:45:07.973Z,1033.75
2017-01-07T03:45:33.555Z,1033.73
2017-01-07T03:45:59.104Z,1033.75
2017-01-07T03:46:24.656Z,1033.72
2017-01-07T03:46:50.332Z,1033.74
2017-01-07T03:47:15.891Z,1033.76
2017-01-07T03:47:41.465Z,1033.74
2017-01-07T03:48:07.145Z,1033.72
2017-01-07T03:48:32.697Z,1033.73
2017-01-07T03:48:58.251Z,1033.75
2017-01-07T03:49:24.000Z,1033.77
2017-01-07T03:49:49.557Z,1033.76
2017-01-07T03:50:15.104Z,1033.77
2017-01-07T03:50:40.787Z,1033.73
2017-01-07T03:51:06.365Z,1033.72
2017-01-07T03:51:31.923Z,1033.73
2017-01-07T03:51:57.495Z,1033.78
2017-01-07T03:52:23.153Z,1033.74
2017-01-07T03:52:48.735Z,1033.72
2017-01-07T03:53:14.280Z,1033.73
2017-01-07T03:53:39.974Z,1033.66
2017-01-07T03:54:05.563Z,1033.68
2017-01-07T03:54:31.105Z,1033.67
2017-01-07T03:54:56.750Z,1033.7
2017-01-07T03:55:22.381Z,1033.68
2017-01-07T03:55:47.986Z,1033.66
2017-01-07T03:56:13.551Z,1033.64
2017-01-07T03:56:39.178Z,1033.63
2017-01-07T03:57:04.728Z,1033.63
2017-01-07T03:57:30.281Z,1033.62
2017-01-07T03:57:55.865Z,1033.63
2017-01-07T03:58:21.479Z,1033.61
2017-01-07T03:58:47.050Z,1033.63
2017-01-07T03:59:12.599Z,1033.59
2017-01-07T03:59:38.156Z,1033.64
2017-01-07T04:00:03.785Z,1033.59
2017-01-07T04:00:29.345Z,1033.64
2017-01-07T04:00:54.887Z,1033.56
2017-01-07T04:01:20.443Z,1033.6
2017-01-07T04:01:45.988Z,1033.58
2017-01-07T04:02:11.546Z,1033.6
2017-01-07T04:02:37.105Z,1033.56
2017-01-07T04:03:02.660Z,1033.55
2017-01-07T04:03:28.206Z,1033.56
2017-01-07T04:03:53.752Z,1033.57
2017-01-07T04:04:19.305Z,1033.54
2017-01-07T04:04:44.916Z,1033.54
2017-01-07T04:05:10.477Z,1033.5
2017-01-07T04:05:36.052Z,1033.5
2017-01-07T04:06:01.659Z,1033.51
2017-01-07T04:06:27.341Z,1033.55
2017-01-07T04:06:52.912Z,1033.51
2017-01-07T04:07:18.463Z,1033.51
2017-01-07T04:07:44.027Z,1033.49
2017-01-07T04:08:09.573Z,1033.49
2017-01-07T04:08:35.134Z,1033.51
2017-01-07T04:09:00.679Z,1033.5
2017-01-07T04:09:26.250Z,1033.52
2017-01-07T04:09:51.850Z,1033.55
2017-01-07T04:10:17.475Z,1033.51
2017-01-07T04:10:43.032Z,1033.54
2017-01-07T04:11:08.610Z,1033.55
2017-01-07T04:11:34.277Z,1033.57
2017-01-07T04:11:59.837Z,1033.59
2017-01-07T04:12:25.444Z,1033.61
2017-01-07T04:12:51.093Z,1033.6
2017-01-07T04:13:16.661Z,1033.6
2017-01-07T04:13:42.245Z,1033.58
2017-01-07T04:14:07.799Z,1033.59
2017-01-07T04:14:33.376Z,1033.56
2017-01-07T04:14:58.938Z,1033.57
2017-01-07T04:15:24.504Z,1033.54
2017-01-07T04:15:50.054Z,1033.56
2017-01-07T04:16:15.612Z,1033.57
2017-01-07T04:16:41.172Z,1033.54
2017-01-07T04:17:06.742Z,1033.53
2017-01-07T04:17:32.339Z,1033.53
2017-01-07T04:17:57.905Z,1033.52
2017-01-07T04:18:23.455Z,1033.51
2017-01-07T04:18:49.030Z,1033.53
2017-01-07T04:19:14.592Z,1033.5
2017-01-07T04:19:40.156Z,1033.55
2017-01-07T04:20:05.737Z,1033.51
2017-01-07T04:20:31.280Z,1033.5
2017-01-07T04:20:56.827Z,1033.5
2017-01-07T04:21:22.381Z,1033.5
2017-01-07T04:21:47.944Z,1033.53
2017-01-07T04:22:13.510Z,1033.54
2017-01-07T04:22:39.109Z,1033.52
2017-01-07T04:23:04.733Z,1033.54
2017-01-07T04:23:30.333Z,1033.51
2017-01-07T04:23:55.926Z,1033.52
2017-01-07T04:24:21.546Z,1033.56
2017-01-07T04:24:47.104Z,1033.5
2017-01-07T04:25:12.763Z,1033.57
2017-01-07T04:25:38.378Z,1033.51
2017-01-07T04:26:03.937Z,1033.55
2017-01-07T04:26:29.502Z,1033.51
2017-01-07T04:26:55.186Z,1033.54
2017-01-07T04:27:20.744Z,1033.52
2017-01-07T04:27:46.309Z,1033.53
2017-01-07T04:28:12.024Z,1033.49
2017-01-07T04:28:37.677Z,1033.47
2017-01-07T04:29:03.352Z,1033.46
2017-01-07T04:29:28.917Z,1033.47
2017-01-07T04:29:54.482Z,1033.46
2017-01-07T04:30:20.038Z,1033.48
2017-01-07T04:30:45.586Z,1033.42
2017-01-07T04:31:11.224Z,1033.39
2017-01-07T04:31:36.786Z,1033.37
2017-01-07T04:32:02.337Z,1033.35
2017-01-07T04:32:27.936Z,1033.36
2017-01-07T04:32:53.490Z,1033.31
2017-01-07T04:33:19.068Z,1033.29
2017-01-07T04:33:44.625Z,1033.27
2017-01-07T04:34:10.188Z,1033.3
2017-01-07T04:34:35.756Z,1033.3
2017-01-07T04:35:01.334Z,1033.28
2017-01-07T04:35:26.894Z,1033.27
2017-01-07T04:35:52.468Z,1033.25
2017-01-07T04:36:18.022Z,1033.23
2017-01-07T04:36:43.580Z,1033.26
2017-01-07T04:37:09.166Z,1033.21
2017-01-07T04:37:34.724Z,1033.19
2017-01-07T04:38:00.278Z,1033.18
2017-01-07T04:38:25.846Z,1033.18
2017-01-07T04:38:51.475Z,1033.14
2017-01-07T04:39:17.044Z,1033.18
2017-01-07T04:39:42.700Z,1033.15
2017-01-07T04:40:08.377Z,1033.18
2017-01-07T04:40:33.932Z,1033.17
2017-01-07T04:40:59.521Z,1033.2
2017-01-07T04:41:25.075Z,1033.19
2017-01-07T04:41:50.684Z,1033.18
2017-01-07T04:42:16.236Z,1033.18
2017-01-07T04:42:41.819Z,1033.19
2017-01-07T04:43:07.384Z,1033.18
2017-01-07T04:43:32.931Z,1033.22
2017-01-07T04:43:58.510Z,1033.22
2017-01-07T04:44:24.063Z,1033.17
2017-01-07T04:44:49.704Z,1033.19
2017-01-07T04:45:15.359Z,1033.24
2017-01-07T04:45:40.923Z,1033.21
2017-01-07T04:46:06.517Z,1033.19
2017-01-07T04:46:32.092Z,1033.21
2017-01-07T04:46:57.650Z,1033.22
2017-01-07T04:47:23.213Z,1033.21
2017-01-07T04:47:48.770Z,1033.17
2017-01-07T04:48:14.331Z,1033.14
2017-01-07T04:48:39.902Z,1033.17
2017-01-07T04:49:05.551Z,1033.18
2017-01-07T04:49:31.108Z,1033.15
2017-01-07T04:49:56.727Z,1033.17
2017-01-07T04:50:22.279Z,1033.17
2017-01-07T04:50:47.849Z,1033.17
2017-01-07T04:51:13.404Z,1033.21
2017-01-07T04:51:39.089Z,1033.18
2017-01-07T04:52:04.649Z,1033.18
2017-01-07T04:52:30.206Z,1033.18
2017-01-07T04:52:55.895Z,1033.17
2017-01-07T04:53:21.470Z,1033.2
2017-01-07T04:53:47.038Z,1033.19
2017-01-07T04:54:12.655Z,1033.16
2017-01-07T04:54:38.216Z,1033.13
2017-01-07T04:55:03.788Z,1033.14
2017-01-07T04:55:29.338Z,1033.16
2017-01-07T04:55:54.887Z,1033.16
2017-01-07T04:56:20.446Z,1033.14
2017-01-07T04:56:46.115Z,1033.17
2017-01-07T04:57:11.670Z,1033.11
2017-01-07T04:57:37.230Z,1033.12
2017-01-07T04:58:02.963Z,1033.16
2017-01-07T04:58:28.518Z,1033.14
2017-01-07T04:58:54.086Z,1033.15
2017-01-07T04:59:19.723Z,1033.17
2017-01-07T04:59:45.332Z,1033.15
2017-01-07T05:00:10.902Z,1033.13
2017-01-07T05:00:36.461Z,1033.08
2017-01-07T05:01:02.046Z,1033.06
2017-01-07T05:01:27.606Z,1033.08
2017-01-07T05:01:53.160Z,1033.06
2017-01-07T05:02:18.766Z,1033.07
2017-01-07T05:02:44.332Z,1033.03
2017-01-07T05:03:09.935Z,1033.07
2017-01-07T05:03:35.491Z,1033.06
2017-01-07T05:04:01.043Z,1033.01
2017-01-07T05:04:26.623Z,1032.99
2017-01-07T05:04:52.187Z,1032.97
2017-01-07T05:05:17.760Z,1032.99
2017-01-07T05:05:43.340Z,1032.95
2017-01-07T05:06:08.911Z,1032.9
2017-01-07T05:06:34.472Z,1032.92
2017-01-07T05:07:00.063Z,1032.9
2017-01-07T05:07:25.615Z,1032.92
2017-01-07T05:07:51.180Z,1032.85
2017-01-07T05:08:16.743Z,1032.85
2017-01-07T05:08:42.450Z,1032.83
2017-01-07T05:09:07.995Z,1032.81
2017-01-07T05:09:33.580Z,1032.82
2017-01-07T05:09:59.277Z,1032.85
2017-01-07T05:10:24.848Z,1032.82
2017-01-07T05:10:50.405Z,1032.77
2017-01-07T05:11:16.031Z,1032.78
2017-01-07T05:11:41.615Z,1032.81
2017-01-07T05:12:07.175Z,1032.79
2017-01-07T05:12:32.759Z,1032.78
2017-01-07T05:12:58.324Z,1032.74
2017-01-07T05:13:23.881Z,1032.76